sensor_id;sensor_type;location;lat;lon;timestamp;P1;durP1;ratioP1;P2;durP2;ratioP2
24787;SDS011;12883;52.662;5.196;2024-02-26T00:01:45;13.93;;;13.93;;
24787;SDS011;12883;52.662;5.196;2024-02-26T00:04:11;13.63;;;13.63;;
24787;SDS011;12883;52.662;5.196;2024-02-26T00:06:38;14.10;;;14.10;;
24787;SDS011;12883;52.662;5.196;2024-02-26T00:09:06;13.03;;;13.03;;
24787;SDS011;12883;52.662;5.196;2024-02-26T00:11:31;14.13;;;14.13;;
24787;SDS011;12883;52.662;5.196;2024-02-26T00:13:57;13.67;;;13.67;;
24787;SDS011;12883;52.662;5.196;2024-02-26T00:16:23;14.17;;;14.17;;
24787;SDS011;12883;52.662;5.196;2024-02-26T00:18:48;14.77;;;14.77;;
24787;SDS011;12883;52.662;5.196;2024-02-26T00:21:13;14.87;;;14.87;;
24787;SDS011;12883;52.662;5.196;2024-02-26T00:23:39;14.77;;;14.77;;
24787;SDS011;12883;52.662;5.196;2024-02-26T00:26:04;15.07;;;15.07;;
24787;SDS011;12883;52.662;5.196;2024-02-26T00:28:29;15.60;;;15.60;;
24787;SDS011;12883;52.662;5.196;2024-02-26T00:30:55;15.40;;;15.40;;
24787;SDS011;12883;52.662;5.196;2024-02-26T00:33:21;15.90;;;15.90;;
24787;SDS011;12883;52.662;5.196;2024-02-26T00:35:47;16.40;;;16.37;;
24787;SDS011;12883;52.662;5.196;2024-02-26T00:38:13;16.30;;;16.30;;
24787;SDS011;12883;52.662;5.196;2024-02-26T00:40:39;16.67;;;16.57;;
24787;SDS011;12883;52.662;5.196;2024-02-26T00:43:05;17.70;;;17.60;;
24787;SDS011;12883;52.662;5.196;2024-02-26T00:45:31;17.40;;;17.30;;
24787;SDS011;12883;52.662;5.196;2024-02-26T00:47:57;17.00;;;17.00;;
24787;SDS011;12883;52.662;5.196;2024-02-26T00:50:23;17.00;;;16.90;;
24787;SDS011;12883;52.662;5.196;2024-02-26T00:52:48;16.63;;;16.60;;
24787;SDS011;12883;52.662;5.196;2024-02-26T00:55:13;16.80;;;16.80;;
24787;SDS011;12883;52.662;5.196;2024-02-26T00:57:39;17.03;;;17.03;;
24787;SDS011;12883;52.662;5.196;2024-02-26T01:00:06;18.17;;;18.07;;
24787;SDS011;12883;52.662;5.196;2024-02-26T01:02:33;17.80;;;17.70;;
24787;SDS011;12883;52.662;5.196;2024-02-26T01:04:59;17.20;;;17.13;;
24787;SDS011;12883;52.662;5.196;2024-02-26T01:07:24;18.30;;;18.20;;
24787;SDS011;12883;52.662;5.196;2024-02-26T01:09:50;18.13;;;18.03;;
24787;SDS011;12883;52.662;5.196;2024-02-26T01:12:15;17.53;;;17.43;;
24787;SDS011;12883;52.662;5.196;2024-02-26T01:14:41;17.33;;;17.33;;
24787;SDS011;12883;52.662;5.196;2024-02-26T01:17:06;17.00;;;16.90;;
24787;SDS011;12883;52.662;5.196;2024-02-26T01:19:31;17.53;;;17.43;;
24787;SDS011;12883;52.662;5.196;2024-02-26T01:21:57;18.47;;;18.37;;
24787;SDS011;12883;52.662;5.196;2024-02-26T01:24:22;17.60;;;17.50;;
24787;SDS011;12883;52.662;5.196;2024-02-26T01:26:47;19.43;;;19.33;;
24787;SDS011;12883;52.662;5.196;2024-02-26T01:29:13;18.43;;;18.33;;
24787;SDS011;12883;52.662;5.196;2024-02-26T01:31:38;19.77;;;19.67;;
24787;SDS011;12883;52.662;5.196;2024-02-26T01:34:03;18.23;;;18.13;;
24787;SDS011;12883;52.662;5.196;2024-02-26T01:36:29;19.20;;;19.10;;
24787;SDS011;12883;52.662;5.196;2024-02-26T01:38:54;19.03;;;18.93;;
24787;SDS011;12883;52.662;5.196;2024-02-26T01:41:19;18.80;;;18.70;;
24787;SDS011;12883;52.662;5.196;2024-02-26T01:43:45;19.30;;;19.20;;
24787;SDS011;12883;52.662;5.196;2024-02-26T01:46:12;18.27;;;18.17;;
24787;SDS011;12883;52.662;5.196;2024-02-26T01:48:42;19.17;;;19.07;;
24787;SDS011;12883;52.662;5.196;2024-02-26T01:51:10;18.33;;;18.23;;
24787;SDS011;12883;52.662;5.196;2024-02-26T01:53:37;20.17;;;20.07;;
24787;SDS011;12883;52.662;5.196;2024-02-26T01:56:03;19.87;;;19.77;;
24787;SDS011;12883;52.662;5.196;2024-02-26T01:58:29;18.77;;;18.67;;
24787;SDS011;12883;52.662;5.196;2024-02-26T02:00:56;19.60;;;19.50;;
24787;SDS011;12883;52.662;5.196;2024-02-26T02:03:22;20.00;;;19.90;;
24787;SDS011;12883;52.662;5.196;2024-02-26T02:05:48;18.97;;;18.87;;
24787;SDS011;12883;52.662;5.196;2024-02-26T02:08:14;19.50;;;19.40;;
24787;SDS011;12883;52.662;5.196;2024-02-26T02:10:39;19.53;;;19.43;;
24787;SDS011;12883;52.662;5.196;2024-02-26T02:13:07;19.73;;;19.63;;
24787;SDS011;12883;52.662;5.196;2024-02-26T02:15:32;19.97;;;19.87;;
24787;SDS011;12883;52.662;5.196;2024-02-26T02:17:58;19.90;;;19.80;;
24787;SDS011;12883;52.662;5.196;2024-02-26T02:20:24;18.87;;;18.77;;
24787;SDS011;12883;52.662;5.196;2024-02-26T02:22:52;18.80;;;18.70;;
24787;SDS011;12883;52.662;5.196;2024-02-26T02:25:17;18.33;;;18.23;;
24787;SDS011;12883;52.662;5.196;2024-02-26T02:27:43;18.30;;;18.20;;
24787;SDS011;12883;52.662;5.196;2024-02-26T02:30:08;19.33;;;19.23;;
24787;SDS011;12883;52.662;5.196;2024-02-26T02:32:36;18.90;;;18.80;;
24787;SDS011;12883;52.662;5.196;2024-02-26T02:35:04;19.30;;;19.20;;
24787;SDS011;12883;52.662;5.196;2024-02-26T02:37:30;18.83;;;18.73;;
24787;SDS011;12883;52.662;5.196;2024-02-26T02:39:55;18.87;;;18.77;;
24787;SDS011;12883;52.662;5.196;2024-02-26T02:42:22;19.90;;;19.80;;
24787;SDS011;12883;52.662;5.196;2024-02-26T02:44:48;18.43;;;18.33;;
24787;SDS011;12883;52.662;5.196;2024-02-26T02:47:13;19.33;;;19.23;;
24787;SDS011;12883;52.662;5.196;2024-02-26T02:49:38;18.80;;;18.70;;
24787;SDS011;12883;52.662;5.196;2024-02-26T02:52:04;19.30;;;19.20;;
24787;SDS011;12883;52.662;5.196;2024-02-26T02:54:29;21.60;;;21.50;;
24787;SDS011;12883;52.662;5.196;2024-02-26T02:56:54;20.93;;;20.83;;
24787;SDS011;12883;52.662;5.196;2024-02-26T02:59:20;21.90;;;21.80;;
24787;SDS011;12883;52.662;5.196;2024-02-26T03:01:45;21.43;;;21.33;;
24787;SDS011;12883;52.662;5.196;2024-02-26T03:04:10;20.73;;;20.63;;
24787;SDS011;12883;52.662;5.196;2024-02-26T03:06:36;21.27;;;21.17;;
24787;SDS011;12883;52.662;5.196;2024-02-26T03:09:02;21.80;;;21.70;;
24787;SDS011;12883;52.662;5.196;2024-02-26T03:11:27;21.97;;;21.87;;
24787;SDS011;12883;52.662;5.196;2024-02-26T03:13:52;24.20;;;24.10;;
24787;SDS011;12883;52.662;5.196;2024-02-26T03:16:18;23.10;;;23.00;;
24787;SDS011;12883;52.662;5.196;2024-02-26T03:18:43;24.53;;;24.43;;
24787;SDS011;12883;52.662;5.196;2024-02-26T03:21:09;25.30;;;25.20;;
24787;SDS011;12883;52.662;5.196;2024-02-26T03:23:34;23.83;;;23.73;;
24787;SDS011;12883;52.662;5.196;2024-02-26T03:26:03;25.30;;;25.20;;
24787;SDS011;12883;52.662;5.196;2024-02-26T03:28:29;25.77;;;25.67;;
24787;SDS011;12883;52.662;5.196;2024-02-26T03:30:55;25.53;;;25.43;;
24787;SDS011;12883;52.662;5.196;2024-02-26T03:33:21;25.77;;;25.67;;
24787;SDS011;12883;52.662;5.196;2024-02-26T03:35:46;24.53;;;24.43;;
24787;SDS011;12883;52.662;5.196;2024-02-26T03:38:11;25.47;;;25.37;;
24787;SDS011;12883;52.662;5.196;2024-02-26T03:40:37;25.10;;;25.00;;
24787;SDS011;12883;52.662;5.196;2024-02-26T03:43:03;24.33;;;24.23;;
24787;SDS011;12883;52.662;5.196;2024-02-26T03:45:29;23.87;;;23.77;;
24787;SDS011;12883;52.662;5.196;2024-02-26T03:47:55;24.40;;;24.30;;
24787;SDS011;12883;52.662;5.196;2024-02-26T03:50:20;23.20;;;23.10;;
24787;SDS011;12883;52.662;5.196;2024-02-26T03:52:46;24.40;;;24.30;;
24787;SDS011;12883;52.662;5.196;2024-02-26T03:55:11;22.83;;;22.73;;
24787;SDS011;12883;52.662;5.196;2024-02-26T03:57:37;24.30;;;24.20;;
24787;SDS011;12883;52.662;5.196;2024-02-26T04:00:02;23.40;;;23.30;;
24787;SDS011;12883;52.662;5.196;2024-02-26T04:02:28;24.07;;;23.97;;
24787;SDS011;12883;52.662;5.196;2024-02-26T04:04:53;24.13;;;24.03;;
24787;SDS011;12883;52.662;5.196;2024-02-26T04:07:18;24.33;;;24.23;;
24787;SDS011;12883;52.662;5.196;2024-02-26T04:09:44;23.63;;;23.53;;
24787;SDS011;12883;52.662;5.196;2024-02-26T04:12:09;22.37;;;22.27;;
24787;SDS011;12883;52.662;5.196;2024-02-26T04:14:35;23.30;;;23.20;;
24787;SDS011;12883;52.662;5.196;2024-02-26T04:17:01;22.40;;;22.30;;
24787;SDS011;12883;52.662;5.196;2024-02-26T04:19:26;22.63;;;22.53;;
24787;SDS011;12883;52.662;5.196;2024-02-26T04:21:52;21.47;;;21.37;;
24787;SDS011;12883;52.662;5.196;2024-02-26T04:24:17;22.10;;;22.00;;
24787;SDS011;12883;52.662;5.196;2024-02-26T04:26:42;21.47;;;21.37;;
24787;SDS011;12883;52.662;5.196;2024-02-26T04:29:08;19.40;;;19.30;;
24787;SDS011;12883;52.662;5.196;2024-02-26T04:31:33;20.20;;;20.10;;
24787;SDS011;12883;52.662;5.196;2024-02-26T04:33:59;20.13;;;20.03;;
24787;SDS011;12883;52.662;5.196;2024-02-26T04:36:24;18.80;;;18.70;;
24787;SDS011;12883;52.662;5.196;2024-02-26T04:38:51;18.17;;;18.10;;
24787;SDS011;12883;52.662;5.196;2024-02-26T04:41:16;18.20;;;18.10;;
24787;SDS011;12883;52.662;5.196;2024-02-26T04:43:42;16.63;;;16.63;;
24787;SDS011;12883;52.662;5.196;2024-02-26T04:46:10;17.13;;;17.03;;
24787;SDS011;12883;52.662;5.196;2024-02-26T04:48:36;15.77;;;15.77;;
24787;SDS011;12883;52.662;5.196;2024-02-26T04:51:01;16.10;;;16.10;;
24787;SDS011;12883;52.662;5.196;2024-02-26T04:53:28;15.50;;;15.50;;
24787;SDS011;12883;52.662;5.196;2024-02-26T04:55:53;14.70;;;14.70;;
24787;SDS011;12883;52.662;5.196;2024-02-26T04:58:19;15.00;;;15.00;;
24787;SDS011;12883;52.662;5.196;2024-02-26T05:00:44;14.67;;;14.67;;
24787;SDS011;12883;52.662;5.196;2024-02-26T05:03:09;15.00;;;15.00;;
24787;SDS011;12883;52.662;5.196;2024-02-26T05:05:40;14.97;;;14.97;;
24787;SDS011;12883;52.662;5.196;2024-02-26T05:08:05;15.10;;;15.10;;
24787;SDS011;12883;52.662;5.196;2024-02-26T05:10:32;14.73;;;14.73;;
24787;SDS011;12883;52.662;5.196;2024-02-26T05:12:58;13.43;;;13.43;;
24787;SDS011;12883;52.662;5.196;2024-02-26T05:15:23;13.40;;;13.40;;
24787;SDS011;12883;52.662;5.196;2024-02-26T05:17:48;13.43;;;13.43;;
24787;SDS011;12883;52.662;5.196;2024-02-26T05:20:14;13.63;;;13.63;;
24787;SDS011;12883;52.662;5.196;2024-02-26T05:22:39;13.43;;;13.43;;
24787;SDS011;12883;52.662;5.196;2024-02-26T05:25:05;12.30;;;12.30;;
24787;SDS011;12883;52.662;5.196;2024-02-26T05:27:30;12.33;;;12.33;;
24787;SDS011;12883;52.662;5.196;2024-02-26T05:29:55;12.33;;;12.33;;
24787;SDS011;12883;52.662;5.196;2024-02-26T05:32:21;11.47;;;11.47;;
24787;SDS011;12883;52.662;5.196;2024-02-26T05:34:47;10.73;;;10.73;;
24787;SDS011;12883;52.662;5.196;2024-02-26T05:37:12;10.40;;;10.40;;
24787;SDS011;12883;52.662;5.196;2024-02-26T05:39:37;10.07;;;10.07;;
24787;SDS011;12883;52.662;5.196;2024-02-26T05:42:03;10.03;;;10.03;;
24787;SDS011;12883;52.662;5.196;2024-02-26T05:44:29;9.00;;;9.00;;
24787;SDS011;12883;52.662;5.196;2024-02-26T05:46:54;8.53;;;8.53;;
24787;SDS011;12883;52.662;5.196;2024-02-26T05:49:20;8.83;;;8.83;;
24787;SDS011;12883;52.662;5.196;2024-02-26T05:51:46;7.27;;;7.27;;
24787;SDS011;12883;52.662;5.196;2024-02-26T05:54:11;6.73;;;6.73;;
24787;SDS011;12883;52.662;5.196;2024-02-26T05:56:37;6.23;;;6.23;;
24787;SDS011;12883;52.662;5.196;2024-02-26T05:59:02;5.57;;;5.57;;
24787;SDS011;12883;52.662;5.196;2024-02-26T06:01:27;6.10;;;6.10;;
24787;SDS011;12883;52.662;5.196;2024-02-26T06:03:53;5.87;;;5.87;;
24787;SDS011;12883;52.662;5.196;2024-02-26T06:06:18;5.73;;;5.73;;
24787;SDS011;12883;52.662;5.196;2024-02-26T06:08:44;5.37;;;5.37;;
24787;SDS011;12883;52.662;5.196;2024-02-26T06:11:09;5.23;;;5.23;;
24787;SDS011;12883;52.662;5.196;2024-02-26T06:13:35;5.87;;;5.87;;
24787;SDS011;12883;52.662;5.196;2024-02-26T06:16:01;5.60;;;5.60;;
24787;SDS011;12883;52.662;5.196;2024-02-26T06:18:27;5.27;;;5.27;;
24787;SDS011;12883;52.662;5.196;2024-02-26T06:20:52;6.10;;;6.10;;
24787;SDS011;12883;52.662;5.196;2024-02-26T06:23:18;5.40;;;5.40;;
24787;SDS011;12883;52.662;5.196;2024-02-26T06:25:43;5.50;;;5.50;;
24787;SDS011;12883;52.662;5.196;2024-02-26T06:28:08;6.23;;;6.23;;
24787;SDS011;12883;52.662;5.196;2024-02-26T06:30:34;5.73;;;5.73;;
24787;SDS011;12883;52.662;5.196;2024-02-26T06:33:00;5.40;;;5.40;;
24787;SDS011;12883;52.662;5.196;2024-02-26T06:35:25;5.17;;;5.17;;
24787;SDS011;12883;52.662;5.196;2024-02-26T06:37:51;5.07;;;5.07;;
24787;SDS011;12883;52.662;5.196;2024-02-26T06:40:18;5.60;;;5.60;;
24787;SDS011;12883;52.662;5.196;2024-02-26T06:42:46;6.10;;;6.10;;
24787;SDS011;12883;52.662;5.196;2024-02-26T06:45:11;5.77;;;5.77;;
24787;SDS011;12883;52.662;5.196;2024-02-26T06:47:37;5.00;;;5.00;;
24787;SDS011;12883;52.662;5.196;2024-02-26T06:50:02;5.17;;;5.17;;
24787;SDS011;12883;52.662;5.196;2024-02-26T06:52:28;5.63;;;5.63;;
24787;SDS011;12883;52.662;5.196;2024-02-26T06:54:53;5.37;;;5.37;;
24787;SDS011;12883;52.662;5.196;2024-02-26T06:57:19;5.53;;;5.53;;
24787;SDS011;12883;52.662;5.196;2024-02-26T06:59:46;5.83;;;5.83;;
24787;SDS011;12883;52.662;5.196;2024-02-26T07:02:15;5.33;;;5.33;;
24787;SDS011;12883;52.662;5.196;2024-02-26T07:04:41;4.97;;;4.97;;
24787;SDS011;12883;52.662;5.196;2024-02-26T07:07:07;4.97;;;4.97;;
24787;SDS011;12883;52.662;5.196;2024-02-26T07:09:32;4.97;;;4.97;;
24787;SDS011;12883;52.662;5.196;2024-02-26T07:11:58;4.23;;;4.23;;
24787;SDS011;12883;52.662;5.196;2024-02-26T07:14:23;4.20;;;4.20;;
24787;SDS011;12883;52.662;5.196;2024-02-26T07:16:49;4.23;;;4.23;;
24787;SDS011;12883;52.662;5.196;2024-02-26T07:19:15;3.87;;;3.87;;
24787;SDS011;12883;52.662;5.196;2024-02-26T07:21:40;3.47;;;3.47;;
24787;SDS011;12883;52.662;5.196;2024-02-26T07:24:05;3.50;;;3.50;;
24787;SDS011;12883;52.662;5.196;2024-02-26T07:26:31;5.10;;;5.10;;
24787;SDS011;12883;52.662;5.196;2024-02-26T07:28:57;3.57;;;3.57;;
24787;SDS011;12883;52.662;5.196;2024-02-26T07:31:22;3.60;;;3.60;;
24787;SDS011;12883;52.662;5.196;2024-02-26T07:33:48;3.40;;;3.40;;
24787;SDS011;12883;52.662;5.196;2024-02-26T07:36:13;3.37;;;3.37;;
24787;SDS011;12883;52.662;5.196;2024-02-26T07:38:38;3.27;;;3.27;;
24787;SDS011;12883;52.662;5.196;2024-02-26T07:41:04;3.27;;;3.27;;
24787;SDS011;12883;52.662;5.196;2024-02-26T07:43:30;3.50;;;3.50;;
24787;SDS011;12883;52.662;5.196;2024-02-26T07:45:55;3.57;;;3.57;;
24787;SDS011;12883;52.662;5.196;2024-02-26T07:48:20;3.60;;;3.60;;
24787;SDS011;12883;52.662;5.196;2024-02-26T07:50:46;3.40;;;3.40;;
24787;SDS011;12883;52.662;5.196;2024-02-26T07:53:11;3.10;;;3.10;;
24787;SDS011;12883;52.662;5.196;2024-02-26T07:55:37;3.87;;;3.87;;
24787;SDS011;12883;52.662;5.196;2024-02-26T07:58:02;3.50;;;3.50;;
24787;SDS011;12883;52.662;5.196;2024-02-26T08:00:28;3.63;;;3.63;;
24787;SDS011;12883;52.662;5.196;2024-02-26T08:02:53;3.30;;;3.30;;
24787;SDS011;12883;52.662;5.196;2024-02-26T08:05:18;3.37;;;3.37;;
24787;SDS011;12883;52.662;5.196;2024-02-26T08:07:44;3.23;;;3.23;;
24787;SDS011;12883;52.662;5.196;2024-02-26T08:10:09;3.57;;;3.57;;
24787;SDS011;12883;52.662;5.196;2024-02-26T08:12:36;3.20;;;3.20;;
24787;SDS011;12883;52.662;5.196;2024-02-26T08:15:01;3.03;;;3.03;;
24787;SDS011;12883;52.662;5.196;2024-02-26T08:17:27;2.97;;;2.97;;
24787;SDS011;12883;52.662;5.196;2024-02-26T08:19:52;3.37;;;3.37;;
24787;SDS011;12883;52.662;5.196;2024-02-26T08:22:18;3.37;;;3.37;;
24787;SDS011;12883;52.662;5.196;2024-02-26T08:24:43;3.47;;;3.47;;
24787;SDS011;12883;52.662;5.196;2024-02-26T08:27:09;3.23;;;3.23;;
24787;SDS011;12883;52.662;5.196;2024-02-26T08:29:35;3.13;;;3.13;;
24787;SDS011;12883;52.662;5.196;2024-02-26T08:32:00;2.93;;;2.93;;
24787;SDS011;12883;52.662;5.196;2024-02-26T08:34:26;2.80;;;2.80;;
24787;SDS011;12883;52.662;5.196;2024-02-26T08:36:51;2.97;;;2.97;;
24787;SDS011;12883;52.662;5.196;2024-02-26T08:39:17;2.50;;;2.50;;
24787;SDS011;12883;52.662;5.196;2024-02-26T08:41:43;3.60;;;3.60;;
24787;SDS011;12883;52.662;5.196;2024-02-26T08:44:09;2.70;;;2.70;;
24787;SDS011;12883;52.662;5.196;2024-02-26T08:46:35;2.90;;;2.90;;
24787;SDS011;12883;52.662;5.196;2024-02-26T08:49:00;2.77;;;2.77;;
24787;SDS011;12883;52.662;5.196;2024-02-26T08:51:25;2.50;;;2.50;;
24787;SDS011;12883;52.662;5.196;2024-02-26T08:53:51;3.00;;;3.00;;
24787;SDS011;12883;52.662;5.196;2024-02-26T08:56:16;2.90;;;2.90;;
24787;SDS011;12883;52.662;5.196;2024-02-26T08:58:45;3.23;;;3.23;;
24787;SDS011;12883;52.662;5.196;2024-02-26T09:01:13;2.73;;;2.73;;
24787;SDS011;12883;52.662;5.196;2024-02-26T09:03:38;3.47;;;3.47;;
24787;SDS011;12883;52.662;5.196;2024-02-26T09:06:05;3.23;;;3.23;;
24787;SDS011;12883;52.662;5.196;2024-02-26T09:08:31;3.40;;;3.40;;
24787;SDS011;12883;52.662;5.196;2024-02-26T09:10:57;3.47;;;3.47;;
24787;SDS011;12883;52.662;5.196;2024-02-26T09:13:22;3.10;;;3.10;;
24787;SDS011;12883;52.662;5.196;2024-02-26T09:15:48;3.03;;;3.03;;
24787;SDS011;12883;52.662;5.196;2024-02-26T09:18:14;3.00;;;3.00;;
24787;SDS011;12883;52.662;5.196;2024-02-26T09:20:40;2.70;;;2.70;;
24787;SDS011;12883;52.662;5.196;2024-02-26T09:23:05;2.70;;;2.70;;
24787;SDS011;12883;52.662;5.196;2024-02-26T09:25:31;2.83;;;2.83;;
24787;SDS011;12883;52.662;5.196;2024-02-26T09:27:58;2.80;;;2.80;;
24787;SDS011;12883;52.662;5.196;2024-02-26T09:30:24;2.60;;;2.60;;
24787;SDS011;12883;52.662;5.196;2024-02-26T09:32:49;2.53;;;2.53;;
24787;SDS011;12883;52.662;5.196;2024-02-26T09:35:14;2.53;;;2.53;;
24787;SDS011;12883;52.662;5.196;2024-02-26T09:37:40;2.60;;;2.60;;
24787;SDS011;12883;52.662;5.196;2024-02-26T09:40:05;2.40;;;2.40;;
24787;SDS011;12883;52.662;5.196;2024-02-26T09:42:31;2.37;;;2.37;;
24787;SDS011;12883;52.662;5.196;2024-02-26T09:44:59;2.73;;;2.73;;
24787;SDS011;12883;52.662;5.196;2024-02-26T09:47:26;2.73;;;2.73;;
24787;SDS011;12883;52.662;5.196;2024-02-26T09:49:54;2.47;;;2.47;;
24787;SDS011;12883;52.662;5.196;2024-02-26T09:52:21;2.50;;;2.50;;
24787;SDS011;12883;52.662;5.196;2024-02-26T09:54:48;1.87;;;1.87;;
24787;SDS011;12883;52.662;5.196;2024-02-26T09:57:15;2.20;;;2.20;;
24787;SDS011;12883;52.662;5.196;2024-02-26T09:59:42;1.97;;;1.97;;
24787;SDS011;12883;52.662;5.196;2024-02-26T10:02:12;2.40;;;2.40;;
24787;SDS011;12883;52.662;5.196;2024-02-26T10:04:39;2.10;;;2.10;;
24787;SDS011;12883;52.662;5.196;2024-02-26T10:07:06;2.23;;;2.23;;
24787;SDS011;12883;52.662;5.196;2024-02-26T10:09:35;2.50;;;2.50;;
24787;SDS011;12883;52.662;5.196;2024-02-26T10:12:01;2.00;;;2.00;;
24787;SDS011;12883;52.662;5.196;2024-02-26T10:14:26;2.27;;;2.27;;
24787;SDS011;12883;52.662;5.196;2024-02-26T10:16:52;2.07;;;2.07;;
24787;SDS011;12883;52.662;5.196;2024-02-26T10:19:28;1.60;;;1.60;;
24787;SDS011;12883;52.662;5.196;2024-02-26T10:21:57;2.10;;;2.10;;
24787;SDS011;12883;52.662;5.196;2024-02-26T10:24:24;2.20;;;2.20;;
24787;SDS011;12883;52.662;5.196;2024-02-26T10:26:50;1.97;;;1.97;;
24787;SDS011;12883;52.662;5.196;2024-02-26T10:29:17;2.10;;;2.10;;
24787;SDS011;12883;52.662;5.196;2024-02-26T10:31:43;1.73;;;1.73;;
24787;SDS011;12883;52.662;5.196;2024-02-26T10:34:09;1.70;;;1.70;;
24787;SDS011;12883;52.662;5.196;2024-02-26T10:36:35;1.60;;;1.60;;
24787;SDS011;12883;52.662;5.196;2024-02-26T10:39:02;2.30;;;2.30;;
24787;SDS011;12883;52.662;5.196;2024-02-26T10:41:29;1.80;;;1.80;;
24787;SDS011;12883;52.662;5.196;2024-02-26T10:43:55;2.00;;;2.00;;
24787;SDS011;12883;52.662;5.196;2024-02-26T10:46:21;1.87;;;1.87;;
24787;SDS011;12883;52.662;5.196;2024-02-26T10:48:50;1.93;;;1.93;;
24787;SDS011;12883;52.662;5.196;2024-02-26T10:51:16;2.50;;;2.50;;
24787;SDS011;12883;52.662;5.196;2024-02-26T10:53:50;2.00;;;2.00;;
24787;SDS011;12883;52.662;5.196;2024-02-26T10:56:21;1.77;;;1.77;;
24787;SDS011;12883;52.662;5.196;2024-02-26T10:58:54;1.83;;;1.83;;
24787;SDS011;12883;52.662;5.196;2024-02-26T11:01:20;1.60;;;1.60;;
24787;SDS011;12883;52.662;5.196;2024-02-26T11:03:51;2.03;;;2.03;;
24787;SDS011;12883;52.662;5.196;2024-02-26T11:06:21;1.97;;;1.97;;
24787;SDS011;12883;52.662;5.196;2024-02-26T11:08:50;1.90;;;1.90;;
24787;SDS011;12883;52.662;5.196;2024-02-26T11:11:16;1.90;;;1.90;;
24787;SDS011;12883;52.662;5.196;2024-02-26T11:13:43;2.20;;;2.20;;
24787;SDS011;12883;52.662;5.196;2024-02-26T11:16:14;2.47;;;2.47;;
24787;SDS011;12883;52.662;5.196;2024-02-26T11:18:46;2.00;;;2.00;;
24787;SDS011;12883;52.662;5.196;2024-02-26T11:21:15;2.03;;;2.03;;
24787;SDS011;12883;52.662;5.196;2024-02-26T11:23:43;2.23;;;2.23;;
24787;SDS011;12883;52.662;5.196;2024-02-26T11:26:10;2.00;;;2.00;;
24787;SDS011;12883;52.662;5.196;2024-02-26T11:28:37;2.07;;;2.07;;
24787;SDS011;12883;52.662;5.196;2024-02-26T11:31:04;2.03;;;2.03;;
24787;SDS011;12883;52.662;5.196;2024-02-26T11:33:30;2.47;;;2.47;;
24787;SDS011;12883;52.662;5.196;2024-02-26T11:35:56;2.50;;;2.50;;
24787;SDS011;12883;52.662;5.196;2024-02-26T11:38:22;2.23;;;2.23;;
24787;SDS011;12883;52.662;5.196;2024-02-26T11:40:49;2.10;;;2.10;;
24787;SDS011;12883;52.662;5.196;2024-02-26T11:43:15;2.50;;;2.50;;
24787;SDS011;12883;52.662;5.196;2024-02-26T11:58:57;2.10;;;2.10;;
24787;SDS011;12883;52.662;5.196;2024-02-26T12:01:44;1.90;;;1.90;;
24787;SDS011;12883;52.662;5.196;2024-02-26T12:06:53;2.10;;;2.10;;
24787;SDS011;12883;52.662;5.196;2024-02-26T12:09:34;1.80;;;1.80;;
24787;SDS011;12883;52.662;5.196;2024-02-26T12:12:03;2.40;;;2.40;;
24787;SDS011;12883;52.662;5.196;2024-02-26T12:14:32;1.73;;;1.73;;
24787;SDS011;12883;52.662;5.196;2024-02-26T12:16:58;1.93;;;1.93;;
24787;SDS011;12883;52.662;5.196;2024-02-26T12:19:23;1.50;;;1.50;;
24787;SDS011;12883;52.662;5.196;2024-02-26T12:21:52;1.50;;;1.50;;
24787;SDS011;12883;52.662;5.196;2024-02-26T12:24:21;1.60;;;1.60;;
24787;SDS011;12883;52.662;5.196;2024-02-26T12:26:46;1.40;;;1.40;;
24787;SDS011;12883;52.662;5.196;2024-02-26T12:29:12;1.37;;;1.37;;
24787;SDS011;12883;52.662;5.196;2024-02-26T12:31:38;1.97;;;1.97;;
24787;SDS011;12883;52.662;5.196;2024-02-26T12:34:05;1.80;;;1.80;;
24787;SDS011;12883;52.662;5.196;2024-02-26T12:36:31;1.40;;;1.40;;
24787;SDS011;12883;52.662;5.196;2024-02-26T12:38:57;1.80;;;1.80;;
24787;SDS011;12883;52.662;5.196;2024-02-26T12:41:23;1.83;;;1.83;;
24787;SDS011;12883;52.662;5.196;2024-02-26T12:43:48;1.70;;;1.70;;
24787;SDS011;12883;52.662;5.196;2024-02-26T12:46:14;2.03;;;2.03;;
24787;SDS011;12883;52.662;5.196;2024-02-26T12:48:44;2.30;;;2.30;;
24787;SDS011;12883;52.662;5.196;2024-02-26T12:51:12;2.73;;;2.73;;
24787;SDS011;12883;52.662;5.196;2024-02-26T12:53:40;2.30;;;2.30;;
24787;SDS011;12883;52.662;5.196;2024-02-26T12:56:07;2.40;;;2.40;;
24787;SDS011;12883;52.662;5.196;2024-02-26T12:58:33;2.40;;;2.40;;
24787;SDS011;12883;52.662;5.196;2024-02-26T13:01:00;2.67;;;2.67;;
24787;SDS011;12883;52.662;5.196;2024-02-26T13:03:26;2.80;;;2.80;;
24787;SDS011;12883;52.662;5.196;2024-02-26T13:05:53;2.40;;;2.40;;
24787;SDS011;12883;52.662;5.196;2024-02-26T13:08:19;2.70;;;2.70;;
24787;SDS011;12883;52.662;5.196;2024-02-26T13:10:45;2.90;;;2.90;;
24787;SDS011;12883;52.662;5.196;2024-02-26T13:13:12;2.60;;;2.60;;
24787;SDS011;12883;52.662;5.196;2024-02-26T13:15:40;2.30;;;2.30;;
24787;SDS011;12883;52.662;5.196;2024-02-26T13:18:12;3.33;;;3.33;;
24787;SDS011;12883;52.662;5.196;2024-02-26T13:20:38;3.13;;;3.13;;
24787;SDS011;12883;52.662;5.196;2024-02-26T13:23:07;2.83;;;2.83;;
24787;SDS011;12883;52.662;5.196;2024-02-26T13:25:36;3.17;;;3.17;;
24787;SDS011;12883;52.662;5.196;2024-02-26T13:30:34;3.07;;;3.07;;
24787;SDS011;12883;52.662;5.196;2024-02-26T13:33:07;3.17;;;3.17;;
24787;SDS011;12883;52.662;5.196;2024-02-26T13:35:36;2.97;;;2.97;;
24787;SDS011;12883;52.662;5.196;2024-02-26T13:38:03;3.30;;;3.30;;
24787;SDS011;12883;52.662;5.196;2024-02-26T13:40:29;2.73;;;2.73;;
24787;SDS011;12883;52.662;5.196;2024-02-26T13:42:55;3.03;;;3.03;;
24787;SDS011;12883;52.662;5.196;2024-02-26T13:45:20;3.77;;;3.77;;
24787;SDS011;12883;52.662;5.196;2024-02-26T13:47:45;3.27;;;3.27;;
24787;SDS011;12883;52.662;5.196;2024-02-26T13:50:11;3.43;;;3.43;;
24787;SDS011;12883;52.662;5.196;2024-02-26T13:52:36;3.53;;;3.53;;
24787;SDS011;12883;52.662;5.196;2024-02-26T13:55:02;2.97;;;2.97;;
24787;SDS011;12883;52.662;5.196;2024-02-26T13:57:28;3.27;;;3.27;;
24787;SDS011;12883;52.662;5.196;2024-02-26T13:59:54;3.03;;;3.03;;
24787;SDS011;12883;52.662;5.196;2024-02-26T14:02:19;3.63;;;3.63;;
24787;SDS011;12883;52.662;5.196;2024-02-26T14:04:45;3.27;;;3.27;;
24787;SDS011;12883;52.662;5.196;2024-02-26T14:07:11;3.30;;;3.30;;
24787;SDS011;12883;52.662;5.196;2024-02-26T14:09:37;2.87;;;2.87;;
24787;SDS011;12883;52.662;5.196;2024-02-26T14:12:03;3.30;;;3.30;;
24787;SDS011;12883;52.662;5.196;2024-02-26T14:14:29;3.17;;;3.17;;
24787;SDS011;12883;52.662;5.196;2024-02-26T14:16:57;3.30;;;3.30;;
24787;SDS011;12883;52.662;5.196;2024-02-26T14:19:23;3.53;;;3.53;;
24787;SDS011;12883;52.662;5.196;2024-02-26T14:21:48;3.40;;;3.40;;
24787;SDS011;12883;52.662;5.196;2024-02-26T14:24:14;3.37;;;3.37;;
24787;SDS011;12883;52.662;5.196;2024-02-26T14:26:39;3.33;;;3.33;;
24787;SDS011;12883;52.662;5.196;2024-02-26T14:29:05;3.80;;;3.80;;
24787;SDS011;12883;52.662;5.196;2024-02-26T14:31:31;3.40;;;3.40;;
24787;SDS011;12883;52.662;5.196;2024-02-26T14:33:57;3.80;;;3.80;;
24787;SDS011;12883;52.662;5.196;2024-02-26T14:36:22;2.90;;;2.90;;
24787;SDS011;12883;52.662;5.196;2024-02-26T14:38:48;3.50;;;3.50;;
24787;SDS011;12883;52.662;5.196;2024-02-26T14:41:14;3.43;;;3.43;;
24787;SDS011;12883;52.662;5.196;2024-02-26T14:43:39;3.97;;;3.97;;
24787;SDS011;12883;52.662;5.196;2024-02-26T14:46:04;3.53;;;3.53;;
24787;SDS011;12883;52.662;5.196;2024-02-26T14:48:30;3.40;;;3.40;;
24787;SDS011;12883;52.662;5.196;2024-02-26T14:50:56;3.40;;;3.40;;